• Join FlightAware (Why Join?)
  • Login
  • US Flag 
 
05:02AM EST


 

Airport Tracker/Info


-or-


 

Live Flight TrackerFlight Track Log ✈ N889JC ✈ 03-May-2012 ✈ KSRQ - KAUS

Flight Track Log - Related Links

Times and Time Zones

All times are in EDT time to prevent confusion due to time zone crossing. See the N889JC flight status page for this flight to view local times or setup timezone preferences in your user account.

Time Position Orientation Groundspeed Altitude Reporting Facility
EDT Latitude Longitude Course Direction KTS MPH feet Rate Location/Type
05:20PM 27.3833 -82.5333 138° Southeast 191 220 600  Level Tampa TRACON
05:21PM 27.3333 -82.4833 191° South 185 213 3,200 1,980 Climbing Tampa TRACON
05:24PM 27.2889 -82.4928 327° Northwest 52 60 8,100 1,920 Climbing Miami Center
05:25PM 27.3394 -82.5303 328° Northwest 116 133 9,800 1,800 Climbing Miami Center
05:26PM 27.4064 -82.5781 318° Northwest 184 212 11,700 1,920 Climbing Miami Center
05:27PM 27.4767 -82.6494 344° North 278 320 13,700 1,980 Climbing Miami Center
05:28PM 27.5797 -82.6828 346° North 336 387 15,700 1,980 Climbing Miami Center
05:29PM 27.7639 -82.7331 349° North 382 440 19,200 1,560 Climbing Jacksonville Center
05:30PM 27.8744 -82.7564 347° North 394 453 20,000 720 Climbing Jacksonville Center
05:31PM 27.9997 -82.7892 348° North 422 486 20,700 1,500 Climbing Jacksonville Center
05:32PM 28.1353 -82.8219 349° North 437 503 23,000 2,340 Climbing Jacksonville Center
05:33PM 28.2583 -82.8503 348° North 450 518 25,400 1,500 Climbing Jacksonville Center
05:34PM 28.3836 -82.8808 349° North 450 518 26,000 300 Climbing Jacksonville Center
05:35PM 28.4881 -82.9044 343° North 425 489 26,100 900 Climbing Jacksonville Center
05:36PM 28.6131 -82.9469 335° Northwest 440 506 27,900 900 Climbing Jacksonville Center
05:37PM 28.7425 -83.0158 336° Northwest 457 526 28,000 60 Climbing Jacksonville Center
05:38PM 28.8614 -83.0750 335° Northwest 462 532 28,100  Climbing Jacksonville Center
05:39PM 28.9783 -83.1369 336° Northwest 462 532 28,100  Level Jacksonville Center
05:40PM 29.0950 -83.1967 335° Northwest 462 532 28,100  Level Jacksonville Center
05:41PM 29.2139 -83.2589 319° Northwest 462 532 28,100  Level Jacksonville Center
05:42PM 29.3117 -83.3569 317° Northwest 462 532 28,100  Level Jacksonville Center
05:43PM 29.4092 -83.4600 317° Northwest 467 537 28,100  Level Jacksonville Center
05:44PM 29.5047 -83.5631 317° Northwest 467 537 28,100  Level Jacksonville Center
05:45PM 29.6003 -83.6642 313° West 472 543 28,100  Level Jacksonville Center
05:46PM 29.6872 -83.7700 295° West 472 543 28,100  Level Jacksonville Center
05:47PM 29.7428 -83.9044 294° West 466 536 28,100  Level Jacksonville Center
05:48PM 29.7958 -84.0389 295° West 466 536 28,100  Level Jacksonville Center
05:49PM 29.8489 -84.1714 296° West 461 531 28,100  Level Jacksonville Center
05:50PM 29.9039 -84.3039 295° West 461 531 28,100  Level Jacksonville Center
05:51PM 29.9586 -84.4389 295° West 461 531 28,100  Level Jacksonville Center
05:52PM 30.0111 -84.5717 295° West 461 531 28,100  Level Jacksonville Center
05:53PM 30.0636 -84.7044 294° West 461 531 28,100  Level Jacksonville Center
05:54PM 30.1158 -84.8400 296° West 461 531 28,100  Level Jacksonville Center
05:55PM 30.1703 -84.9708 294° West 461 531 28,100  Level Jacksonville Center
05:56PM 30.2242 -85.1089 295° West 461 531 28,100  Level Jacksonville Center
05:57PM 30.2761 -85.2400 294° West 456 525 28,100  Level Jacksonville Center
05:58PM 30.3281 -85.3761 291° West 461 531 28,100  Level Jacksonville Center
05:59PM 30.3733 -85.5097 272° West 461 531 28,100  Level Jacksonville Center
06:00PM 30.3783 -85.6689 271° West 453 521 28,100  Level Jacksonville Center
06:01PM 30.3814 -85.8133 273° West 453 521 28,100  Level Jacksonville Center
06:02PM 30.3883 -85.9581 272° West 453 521 28,100  Level Jacksonville Center
06:03PM 30.3931 -86.1025 272° West 458 527 28,100  Level Jacksonville Center
06:04PM 30.3978 -86.2447 273° West 458 527 28,100  Level Jacksonville Center
06:05PM 30.4044 -86.3894 271° West 458 527 28,100  Level Jacksonville Center
06:06PM 30.4067 -86.5342 273° West 458 527 28,100  Level Jacksonville Center
06:07PM 30.4128 -86.6789 273° West 458 527 28,100  Level Jacksonville Center
06:08PM 30.4189 -86.8236 271° West 458 527 28,100  Level Jacksonville Center
06:09PM 30.4214 -86.9417 272° West 458 527 28,100  Level Jacksonville Center
06:10PM 30.4267 -87.1033 272° West 463 533 28,100  Level Jacksonville Center
06:13PM 30.4361 -87.4103 271° West 448 516 28,100 -60 Level Houston Center
06:14PM 30.4386 -87.5594 272° West 454 522 28,000  Descending Houston Center
06:15PM 30.4431 -87.7061 272° West 460 529 28,100  Climbing Houston Center
06:16PM 30.4472 -87.8528 271° West 460 529 28,100  Level Houston Center
06:17PM 30.4494 -88.0142 271° West 455 524 28,100  Level Houston Center
06:18PM 30.4517 -88.1681 271° West 473 544 28,100  Level Houston Center
06:19PM 30.4536 -88.3269 273° West 484 557 28,100  Level Houston Center
06:20PM 30.4594 -88.4833 271° West 490 564 28,100  Level Houston Center
06:21PM 30.4608 -88.6425 271° West 490 564 28,100  Level Houston Center
06:22PM 30.4622 -88.7964 270° West 490 564 28,100  Level Houston Center
06:23PM 30.4631 -88.9458 273° West 490 564 28,100  Level Houston Center
06:24PM 30.4700 -89.0903 271° West 468 539 28,100  Level Houston Center
06:25PM 30.4728 -89.2322 271° West 458 527 28,100  Level Houston Center
06:26PM 30.4753 -89.3744 271° West 448 516 28,100  Level Houston Center
06:27PM 30.4775 -89.5189 271° West 448 516 28,100  Level Houston Center
06:28PM 30.4797 -89.6611 272° West 443 510 28,100  Level Houston Center
06:29PM 30.4839 -89.8031 269° West 443 510 28,100  Level Houston Center
06:30PM 30.4817 -89.9453 270° West 443 510 28,100  Level Houston Center
06:31PM 30.4811 -90.0731 271° West 443 510 28,100  Level Houston Center
06:32PM 30.4825 -90.2103 270° West 437 503 28,100  Level Houston Center
06:33PM 30.4819 -90.3500 271° West 437 503 28,100  Level Houston Center
06:34PM 30.4833 -90.4900 271° West 437 503 28,100  Level Houston Center
06:35PM 30.4844 -90.6319 270° West 437 503 28,100  Level Houston Center
06:36PM 30.4833 -90.7719 264° West 442 509 28,100  Level Houston Center
06:37PM 30.4694 -90.9142 263° West 442 509 28,100  Level Houston Center
06:38PM 30.4536 -91.0539 263° West 442 509 28,100  Level Houston Center
06:39PM 30.4394 -91.1961 262° West 442 509 28,100  Level Houston Center
06:40PM 30.4211 -91.3383 262° West 447 514 28,100  Level Houston Center
06:41PM 30.4047 -91.4781 264° West 447 514 28,100  Level Houston Center
06:42PM 30.3922 -91.6178 260° West 447 514 28,100  Level Houston Center
06:43PM 30.3692 -91.7717 262° West 447 514 28,100  Level Houston Center
06:44PM 30.3522 -91.9136 262° West 447 514 28,100  Level Houston Center
06:45PM 30.3353 -92.0558 261° West 447 514 28,100  Level Houston Center
06:46PM 30.3161 -92.2000 264° West 447 514 28,100  Level Houston Center
06:47PM 30.3050 -92.3131 262° West 447 514 28,100  Level Houston Center
06:48PM 30.2875 -92.4644 262° West 447 514 28,100  Level Houston Center
06:49PM 30.2700 -92.6086 262° West 447 514 28,100  Level Houston Center
06:50PM 30.2522 -92.7503 262° West 447 514 28,100  Level Houston Center
06:51PM 30.2342 -92.8919 262° West 447 514 28,100  Level Houston Center
06:52PM 30.2161 -93.0358 261° West 447 514 28,100  Level Houston Center
06:53PM 30.1981 -93.1750 261° West 447 514 28,100  Level Houston Center
06:54PM 30.1775 -93.3189 261° West 447 514 28,100  Level Houston Center
06:55PM 30.1567 -93.4769 262° West 447 514 28,100  Level Houston Center
06:56PM 30.1381 -93.6208 262° West 452 520 28,100  Level Houston Center
06:57PM 30.1214 -93.7622 261° West 452 520 28,100  Level Houston Center
06:58PM 30.1022 -93.9058 262° West 452 520 28,100  Level Houston Center
06:59PM 30.0853 -94.0447 261° West 447 514 28,100 -60 Level Houston Center
07:00PM 30.0661 -94.1858 261° West 447 514 28,000 -60 Descending Houston Center
07:01PM 30.0467 -94.3269 261° West 447 514 28,000  Level Houston Center
07:02PM 30.0272 -94.4678 261° West 447 514 28,000  Level Houston Center
07:03PM 30.0075 -94.6064 261° West 447 514 28,000  Level Houston Center
07:04PM 29.9878 -94.7472 261° West 447 514 28,000  Level Houston Center
07:05PM 29.9700 -94.8739 262° West 447 514 28,100  Climbing Houston Center
07:06PM 29.9522 -95.0147 261° West 447 514 28,100  Level Houston Center
07:07PM 29.9319 -95.1553 260° West 447 514 28,100  Level Houston Center
07:08PM 29.9114 -95.2936 261° West 447 514 28,100  Level Houston Center
07:09PM 29.8911 -95.4342 260° West 447 514 28,100  Level Houston Center
07:10PM 29.8703 -95.5747 259° West 447 514 28,100  Level Houston Center
07:11PM 29.8475 -95.7153 261° West 447 514 28,100 -60 Level Houston Center
07:12PM 29.8286 -95.8533 259° West 447 514 28,000 -960 Descending Houston Center
07:13PM 29.8053 -95.9936 261° West 447 514 26,200  Descending Houston Center
07:14PM 29.7864 -96.1314 275° West 434 499 28,000 900 Climbing Houston Center
07:15PM 29.7967 -96.2586 296° West 433 498 28,000  Level Houston Center
07:16PM 29.8450 -96.3708 295° West 419 482 28,000  Level Houston Center
07:17PM 29.8931 -96.4906 295° West 429 494 28,000  Level Houston Center
07:18PM 29.9389 -96.6028 295° West 410 472 28,000  Level Houston Center
07:19PM 29.9811 -96.7056 295° West 388 447 28,000  Level Houston Center
07:20PM 30.0250 -96.8156 293° West 388 447 28,000  Level Houston Center
07:21PM 30.0647 -96.9256 289° West 383 441 28,000  Level Houston Center
07:22PM 30.0958 -97.0328 290° West 371 427 28,000  Level Houston Center
07:23PM 30.1272 -97.1328 288° West 329 379 28,000  Level Houston Center
07:24PM 30.1528 -97.2231 289° West 302 348 28,000  Level Houston Center
07:25PM 30.1786 -97.3083 287° West 287 330 28,000  Level Houston Center
07:26PM 30.1983 -97.3814 295° West 282 325 28,000  Level Houston Center
07:27PM 30.2247 -97.4478 318° Northwest 257 296 28,000  Level Houston Center
07:28PM 30.2786 -97.5036 319° Northwest 241 277 28,000  Level Houston Center
07:29PM 30.3267 -97.5522 320° Northwest 236 272 28,000  Level Houston Center
07:30PM 30.3706 -97.5956 275° West 223 257 28,000  Level Houston Center
07:31PM 30.3758 -97.6658 179° South 197 227 28,000  Level Houston Center
07:32PM 30.3217 -97.6650 174° South 132 152 28,000  Level Houston Center
07:33PM 30.2864 -97.6606 179° South 138 159 28,000  Level Houston Center
07:34PM 30.2364 -97.6600 180° South 147 169 28,000  Level Houston Center
07:35PM 30.1967 -97.6600 180° South 155 178 28,000  Level Houston Center